Time;durP1;ratioP1;P1;durP2;ratioP2;P2;SDS_P1;SDS_P2;PMS_P1;PMS_P2;Temp;Humidity;BMP_temperature;BMP_pressure;BME280_temperature;BME280_humidity;BME280_pressure;Samples;Min_cycle;Max_cycle;Signal;HPM_P1;HPM_P2
2022/01/10 00:00:21;;;;;;;;;;;6.00;84.10;;;;;;5025147;28;87098;-43
2022/01/10 00:02:48;;;;;;;;;;;6.00;84.00;;;;;;5025563;28;89105;-43
2022/01/10 00:05:13;;;;;;;;;;;6.10;84.00;;;;;;5024308;28;89448;-43
2022/01/10 00:07:39;;;;;;;;;;;6.00;84.00;;;;;;5027848;28;86870;-43
2022/01/10 00:10:05;;;;;;;;;;;6.00;84.00;;;;;;5024094;28;88939;-43
2022/01/10 00:12:31;;;;;;;;;;;6.00;84.00;;;;;;5024989;28;87126;-43
2022/01/10 00:14:56;;;;;;;;;;;6.00;83.90;;;;;;5024915;28;89712;-43
2022/01/10 00:17:22;;;;;;;;;;;6.10;84.00;;;;;;5024610;28;90090;-43
2022/01/10 00:19:47;;;;;;;;;;;6.10;84.00;;;;;;5024867;28;87186;-43
2022/01/10 00:22:13;;;;;;;;;;;6.00;83.90;;;;;;5024864;28;87457;-43
2022/01/10 00:24:39;;;;;;;;;;;6.00;84.00;;;;;;5024300;28;89371;-43
2022/01/10 00:27:04;;;;;;;;;;;6.10;84.00;;;;;;5028171;28;86405;-43
2022/01/10 00:29:30;;;;;;;;;;;6.00;84.00;;;;;;5024425;28;89536;-43
2022/01/10 00:31:57;;;;;;;;;;;6.00;84.10;;;;;;5024709;28;87269;-43
2022/01/10 00:34:23;;;;;;;;;;;6.00;84.00;;;;;;5023720;28;88898;-43
2022/01/10 00:36:49;;;;;;;;;;;6.00;84.00;;;;;;5024103;28;89464;-43
2022/01/10 00:39:14;;;;;;;;;;;6.00;84.20;;;;;;5024408;28;86930;-43
2022/01/10 00:41:41;;;;;;;;;;;6.00;84.10;;;;;;5024251;28;88031;-43
2022/01/10 00:44:08;;;;;;;;;;;6.00;84.30;;;;;;5024052;28;89699;-43
2022/01/10 00:46:34;;;;;;;;;;;6.00;84.30;;;;;;5024441;28;86870;-43
2022/01/10 00:49:00;;;;;;;;;;;5.90;84.40;;;;;;5027062;28;88716;-43
2022/01/10 00:51:25;;;;;;;;;;;5.90;84.30;;;;;;5024804;28;86448;-43
2022/01/10 00:53:52;;;;;;;;;;;5.90;84.40;;;;;;5024621;28;88248;-43
2022/01/10 00:56:18;;;;;;;;;;;5.90;84.50;;;;;;5023910;28;89419;-43
2022/01/10 00:58:43;;;;;;;;;;;5.90;84.40;;;;;;5023665;28;88058;-43
2022/01/10 01:01:09;;;;;;;;;;;5.90;84.30;;;;;;5024156;28;89683;-43
2022/01/10 01:03:35;;;;;;;;;;;6.00;84.40;;;;;;5023788;28;88924;-43
2022/01/10 01:06:00;;;;;;;;;;;5.90;84.30;;;;;;5023762;28;87263;-43
2022/01/10 01:08:31;;;;;;;;;;;6.00;84.50;;;;;;5024046;28;89049;-43
2022/01/10 01:16:14;;;;;;;;;;;5.90;84.60;;;;;;5024153;28;86301;-43
2022/01/10 01:26:28;;;;;;;;;;;5.90;84.60;;;;;;5024004;28;86932;-43
2022/01/10 01:28:53;;;;;;;;;;;5.90;84.80;;;;;;5023445;28;88990;-43
2022/01/10 01:31:19;;;;;;;;;;;5.90;84.80;;;;;;5023427;28;89523;-43
2022/01/10 01:33:44;;;;;;;;;;;5.80;84.70;;;;;;5026765;28;87203;-43
2022/01/10 01:36:11;;;;;;;;;;;5.80;84.90;;;;;;5023361;28;89094;-43
2022/01/10 01:38:37;;;;;;;;;;;5.80;84.80;;;;;;5023509;28;87119;-43
2022/01/10 01:43:47;;;;;;;;;;;5.90;84.70;;;;;;5023467;28;87204;-43
2022/01/10 01:46:13;;;;;;;;;;;5.90;84.60;;;;;;5022513;28;87240;-43
2022/01/10 01:48:38;;;;;;;;;;;5.90;84.60;;;;;;5022949;28;89554;-43
2022/01/10 01:51:04;;;;;;;;;;;5.90;84.60;;;;;;5023072;28;89462;-43
2022/01/10 01:53:30;;;;;;;;;;;5.80;84.70;;;;;;5023367;28;87085;-43
2022/01/10 01:55:57;;;;;;;;;;;5.90;84.80;;;;;;5025969;28;87844;-43
2022/01/10 01:58:22;;;;;;;;;;;5.90;84.60;;;;;;5023204;28;87081;-43
2022/01/10 02:00:48;;;;;;;;;;;5.90;84.70;;;;;;5023870;28;86839;-43
2022/01/10 02:03:14;;;;;;;;;;;5.90;84.70;;;;;;5022940;28;89784;-43
2022/01/10 02:05:39;;;;;;;;;;;5.90;84.70;;;;;;5023828;28;86475;-43
2022/01/10 02:08:05;;;;;;;;;;;5.90;84.60;;;;;;5023288;28;88383;-43
2022/01/10 02:10:30;;;;;;;;;;;5.80;84.60;;;;;;5022956;28;89250;-43
2022/01/10 02:12:56;;;;;;;;;;;5.80;84.70;;;;;;5022397;28;88208;-43
2022/01/10 02:15:34;;;;;;;;;;;5.80;84.80;;;;;;5025766;28;90006;-43
2022/01/10 02:18:00;;;;;;;;;;;5.80;84.80;;;;;;5023162;28;86911;-43
2022/01/10 02:20:32;;;;;;;;;;;5.80;84.60;;;;;;5023111;28;88682;-43
2022/01/10 02:22:58;;;;;;;;;;;5.90;84.70;;;;;;5022939;28;89591;-43
2022/01/10 02:25:24;;;;;;;;;;;5.90;84.40;;;;;;5022942;28;87145;-43
2022/01/10 02:27:49;;;;;;;;;;;5.80;84.60;;;;;;5023115;28;89077;-43
2022/01/10 02:30:15;;;;;;;;;;;5.80;84.60;;;;;;5023204;28;88654;-43
2022/01/10 02:32:41;;;;;;;;;;;5.90;84.70;;;;;;5023038;28;87154;-43
2022/01/10 02:35:17;;;;;;;;;;;5.90;84.60;;;;;;5022933;28;88685;-43
2022/01/10 02:37:42;;;;;;;;;;;5.80;84.70;;;;;;5024974;28;90412;-43
2022/01/10 02:40:13;;;;;;;;;;;5.80;84.60;;;;;;5022289;28;90353;-44
2022/01/10 02:42:39;;;;;;;;;;;5.80;84.70;;;;;;5022762;28;89692;-43
2022/01/10 02:45:05;;;;;;;;;;;5.80;84.60;;;;;;5023044;28;87184;-43
2022/01/10 02:47:31;;;;;;;;;;;5.80;84.70;;;;;;5022867;28;90163;-43
2022/01/10 02:49:56;;;;;;;;;;;5.80;84.80;;;;;;5022511;28;89955;-43
2022/01/10 02:52:22;;;;;;;;;;;5.80;84.80;;;;;;5022641;28;87219;-43
2022/01/10 02:54:47;;;;;;;;;;;5.80;84.40;;;;;;5023127;28;87581;-43
2022/01/10 02:57:13;;;;;;;;;;;5.80;84.50;;;;;;5024473;28;90297;-43
2022/01/10 02:59:39;;;;;;;;;;;5.80;84.60;;;;;;5028860;28;87196;-43
2022/01/10 03:02:07;;;;;;;;;;;5.80;84.60;;;;;;5024893;28;90264;-43
2022/01/10 03:04:32;;;;;;;;;;;5.80;84.60;;;;;;5025906;28;87209;-43
2022/01/10 03:06:58;;;;;;;;;;;5.80;84.60;;;;;;5025952;28;88767;-43
2022/01/10 03:09:24;;;;;;;;;;;5.80;84.60;;;;;;5025306;28;89391;-43
2022/01/10 03:11:50;;;;;;;;;;;5.80;84.50;;;;;;5025897;28;86990;-43
2022/01/10 03:14:16;;;;;;;;;;;5.80;84.40;;;;;;5026067;28;88763;-43
2022/01/10 03:16:41;;;;;;;;;;;5.80;84.40;;;;;;5025534;28;89257;-43
2022/01/10 03:19:08;;;;;;;;;;;5.80;84.40;;;;;;5026300;28;86422;-43
2022/01/10 03:21:35;;;;;;;;;;;5.80;84.50;;;;;;5028471;28;89092;-43
2022/01/10 03:24:01;;;;;;;;;;;5.80;84.60;;;;;;5025528;28;87162;-43
2022/01/10 03:26:27;;;;;;;;;;;5.80;84.60;;;;;;5025072;28;88399;-43
2022/01/10 03:28:53;;;;;;;;;;;5.80;84.50;;;;;;5025277;28;89650;-43
2022/01/10 03:31:18;;;;;;;;;;;5.80;84.50;;;;;;5025558;28;87184;-43
2022/01/10 03:33:44;;;;;;;;;;;5.80;84.70;;;;;;5025672;28;88938;-43
2022/01/10 03:36:10;;;;;;;;;;;5.80;84.40;;;;;;5025187;28;89518;-43
2022/01/10 03:38:35;;;;;;;;;;;5.80;84.60;;;;;;5025118;28;87024;-43
2022/01/10 03:41:01;;;;;;;;;;;5.80;84.40;;;;;;5025211;28;88693;-43
2022/01/10 03:43:27;;;;;;;;;;;5.80;84.60;;;;;;5028281;28;89460;-43
2022/01/10 03:45:52;;;;;;;;;;;5.80;84.60;;;;;;5025399;28;89250;-43
2022/01/10 03:48:18;;;;;;;;;;;5.80;84.60;;;;;;5025004;28;89309;-43
2022/01/10 03:50:44;;;;;;;;;;;5.80;84.40;;;;;;5024809;28;88069;-43
2022/01/10 03:53:09;;;;;;;;;;;5.80;84.40;;;;;;5025121;28;90032;-43
2022/01/10 03:55:35;;;;;;;;;;;5.80;84.50;;;;;;5024984;28;89731;-43
2022/01/10 03:58:00;;;;;;;;;;;5.70;84.70;;;;;;5025294;28;87224;-43
2022/01/10 04:00:26;;;;;;;;;;;5.80;84.50;;;;;;5025183;28;88775;-43
2022/01/10 04:03:00;;;;;;;;;;;5.80;84.50;;;;;;5024846;28;89202;-43
2022/01/10 04:05:25;;;;;;;;;;;5.80;84.60;;;;;;5028003;28;86866;-43
2022/01/10 04:07:51;;;;;;;;;;;5.70;84.70;;;;;;5024278;28;88802;-43
2022/01/10 04:10:17;;;;;;;;;;;5.80;84.60;;;;;;5025153;28;87161;-43
2022/01/10 04:12:42;;;;;;;;;;;5.80;84.50;;;;;;5024850;28;88666;-43
2022/01/10 04:15:08;;;;;;;;;;;5.70;84.60;;;;;;5023808;28;90458;-43
2022/01/10 04:17:34;;;;;;;;;;;5.80;84.40;;;;;;5024941;28;87001;-43
2022/01/10 04:20:00;;;;;;;;;;;5.70;84.50;;;;;;5024885;28;88899;-43
2022/01/10 04:22:25;;;;;;;;;;;5.70;84.40;;;;;;5024360;28;87118;-43
2022/01/10 04:24:51;;;;;;;;;;;5.80;84.40;;;;;;5027864;28;87171;-43
2022/01/10 04:27:16;;;;;;;;;;;5.80;84.60;;;;;;5024538;28;88124;-43
2022/01/10 04:29:42;;;;;;;;;;;5.80;84.40;;;;;;5024683;28;87123;-43
2022/01/10 04:32:08;;;;;;;;;;;5.80;84.40;;;;;;5025190;28;89164;-43
2022/01/10 04:34:34;;;;;;;;;;;5.80;84.30;;;;;;5024158;28;89354;-43
2022/01/10 04:36:59;;;;;;;;;;;5.80;84.60;;;;;;5024411;28;87110;-43
2022/01/10 04:39:25;;;;;;;;;;;5.70;84.40;;;;;;5024031;28;87925;-43
2022/01/10 04:41:50;;;;;;;;;;;5.80;84.70;;;;;;5023381;28;89550;-43
2022/01/10 04:44:16;;;;;;;;;;;5.70;84.40;;;;;;5024271;28;87159;-43
2022/01/10 04:46:41;;;;;;;;;;;5.70;84.40;;;;;;5026850;28;89033;-43
2022/01/10 04:49:14;;;;;;;;;;;5.70;84.30;;;;;;5024252;28;87168;-43
2022/01/10 04:51:39;;;;;;;;;;;5.70;84.60;;;;;;5024314;28;88707;-43
2022/01/10 04:54:05;;;;;;;;;;;5.70;84.60;;;;;;5023959;28;89603;-43
2022/01/10 04:56:31;;;;;;;;;;;5.80;84.40;;;;;;5024997;28;86158;-43
2022/01/10 04:58:56;;;;;;;;;;;5.70;84.30;;;;;;5024155;28;87900;-43
2022/01/10 05:01:22;;;;;;;;;;;5.70;84.40;;;;;;5023939;28;89522;-43
2022/01/10 05:03:48;;;;;;;;;;;5.80;84.50;;;;;;5023877;28;88049;-43
2022/01/10 05:06:13;;;;;;;;;;;5.70;84.40;;;;;;5023967;28;89793;-43
2022/01/10 05:08:39;;;;;;;;;;;5.70;84.60;;;;;;5026718;28;89481;-43
2022/01/10 05:11:05;;;;;;;;;;;5.70;84.50;;;;;;5024119;28;88789;-43
2022/01/10 05:13:30;;;;;;;;;;;5.70;84.50;;;;;;5023808;28;89447;-43
2022/01/10 05:15:56;;;;;;;;;;;5.70;84.70;;;;;;5024023;28;87110;-43
2022/01/10 05:18:22;;;;;;;;;;;5.70;84.60;;;;;;5023968;28;88778;-43
2022/01/10 05:20:49;;;;;;;;;;;5.70;84.50;;;;;;5022908;28;88820;-43
2022/01/10 05:23:14;;;;;;;;;;;5.70;84.30;;;;;;5023718;28;87138;-43
2022/01/10 05:25:40;;;;;;;;;;;5.70;84.50;;;;;;5023783;28;88716;-43
2022/01/10 05:28:12;;;;;;;;;;;5.70;84.40;;;;;;5022827;28;90443;-43
2022/01/10 05:30:39;;;;;;;;;;;5.70;84.30;;;;;;5026774;28;87080;-43
2022/01/10 05:33:05;;;;;;;;;;;5.70;84.60;;;;;;5023762;28;88149;-43
2022/01/10 05:35:30;;;;;;;;;;;5.70;84.40;;;;;;5023785;28;87098;-43
2022/01/10 05:37:56;;;;;;;;;;;5.70;84.40;;;;;;5023635;28;87663;-43
2022/01/10 05:40:21;;;;;;;;;;;5.70;84.30;;;;;;5022725;28;89756;-43
2022/01/10 05:42:47;;;;;;;;;;;5.70;84.30;;;;;;5023506;28;86923;-43
2022/01/10 05:45:13;;;;;;;;;;;5.70;84.50;;;;;;5023998;28;88882;-43
2022/01/10 05:47:43;;;;;;;;;;;5.70;84.50;;;;;;5023458;28;86985;-43
2022/01/10 05:50:11;;;;;;;;;;;5.70;85.00;;;;;;5023515;28;86933;-43
2022/01/10 05:52:37;;;;;;;;;;;5.70;84.40;;;;;;5025445;28;87990;-43
2022/01/10 05:55:03;;;;;;;;;;;5.70;84.30;;;;;;5023680;28;87138;-43
2022/01/10 05:57:29;;;;;;;;;;;5.70;84.30;;;;;;5023428;28;89819;-43
2022/01/10 05:59:54;;;;;;;;;;;5.70;84.40;;;;;;5022910;28;89703;-43
2022/01/10 06:02:20;;;;;;;;;;;5.70;84.40;;;;;;5023342;28;87126;-43
2022/01/10 06:04:46;;;;;;;;;;;5.70;84.60;;;;;;5023490;28;87582;-43
2022/01/10 06:07:12;;;;;;;;;;;5.70;84.60;;;;;;5022833;28;89583;-43
2022/01/10 06:09:38;;;;;;;;;;;5.70;84.50;;;;;;5023876;28;86271;-43
2022/01/10 06:12:04;;;;;;;;;;;5.70;84.50;;;;;;5023373;28;87445;-43
2022/01/10 06:14:29;;;;;;;;;;;5.70;84.70;;;;;;5025675;28;89019;-43
2022/01/10 06:16:55;;;;;;;;;;;5.70;84.50;;;;;;5022889;28;87813;-43
2022/01/10 06:19:20;;;;;;;;;;;5.70;84.40;;;;;;5022763;28;89621;-43
2022/01/10 06:21:46;;;;;;;;;;;5.70;84.50;;;;;;5023253;28;87138;-43
2022/01/10 06:24:12;;;;;;;;;;;5.70;84.50;;;;;;5023086;28;88985;-43
2022/01/10 06:26:37;;;;;;;;;;;5.70;84.50;;;;;;5022467;28;89240;-43
2022/01/10 06:29:03;;;;;;;;;;;5.70;84.50;;;;;;5023002;28;87130;-43
2022/01/10 06:31:29;;;;;;;;;;;5.70;84.50;;;;;;5024061;28;87912;-43
2022/01/10 06:33:54;;;;;;;;;;;5.60;84.70;;;;;;5029463;28;88821;-43
2022/01/10 06:36:20;;;;;;;;;;;5.60;84.50;;;;;;5026250;28;88547;-43
2022/01/10 06:38:45;;;;;;;;;;;5.60;84.50;;;;;;5026037;28;89368;-43
2022/01/10 06:41:11;;;;;;;;;;;5.70;84.50;;;;;;5025435;28;88052;-43
2022/01/10 06:43:37;;;;;;;;;;;5.60;84.60;;;;;;5026463;28;90010;-43
2022/01/10 06:46:03;;;;;;;;;;;5.60;84.50;;;;;;5025884;28;89308;-43
2022/01/10 06:48:29;;;;;;;;;;;5.60;84.60;;;;;;5026478;28;86963;-43
2022/01/10 06:50:55;;;;;;;;;;;5.70;84.50;;;;;;5026161;28;88659;-43
2022/01/10 06:53:21;;;;;;;;;;;5.60;84.50;;;;;;5025780;28;89941;-43
2022/01/10 06:55:46;;;;;;;;;;;5.60;84.50;;;;;;5029352;28;87221;-43
2022/01/10 06:58:13;;;;;;;;;;;5.60;84.50;;;;;;5026362;28;88882;-43
2022/01/10 07:00:39;;;;;;;;;;;5.60;84.50;;;;;;5026237;28;86885;-43
2022/01/10 07:03:04;;;;;;;;;;;5.60;84.70;;;;;;5025855;28;90847;-43
2022/01/10 07:05:30;;;;;;;;;;;5.60;84.40;;;;;;5024568;28;90819;-43
2022/01/10 07:07:55;;;;;;;;;;;5.60;84.60;;;;;;5025994;28;86714;-43
2022/01/10 07:10:21;;;;;;;;;;;5.60;84.60;;;;;;5026198;28;88078;-43
2022/01/10 07:12:47;;;;;;;;;;;5.60;84.60;;;;;;5025586;28;89464;-43
2022/01/10 07:15:12;;;;;;;;;;;5.60;84.50;;;;;;5025937;28;87112;-43
2022/01/10 07:17:38;;;;;;;;;;;5.60;84.60;;;;;;5028375;28;89152;-43
2022/01/10 07:20:04;;;;;;;;;;;5.60;84.50;;;;;;5025656;28;87182;-43
2022/01/10 07:22:29;;;;;;;;;;;5.60;84.60;;;;;;5026076;28;89056;-43
2022/01/10 07:24:55;;;;;;;;;;;5.60;84.60;;;;;;5025546;28;89546;-43
2022/01/10 07:27:20;;;;;;;;;;;5.60;84.50;;;;;;5025781;28;87087;-43
2022/01/10 07:29:49;;;;;;;;;;;5.60;84.60;;;;;;5025078;28;88571;-43
2022/01/10 07:32:15;;;;;;;;;;;5.60;84.60;;;;;;5025185;28;89213;-43
2022/01/10 07:34:40;;;;;;;;;;;5.60;84.80;;;;;;5025653;28;87024;-43
2022/01/10 07:37:06;;;;;;;;;;;5.60;84.60;;;;;;5025514;28;88987;-43
2022/01/10 07:39:31;;;;;;;;;;;5.60;84.60;;;;;;5027988;28;89630;-43
2022/01/10 07:41:57;;;;;;;;;;;5.60;84.50;;;;;;5024902;28;88970;-43
2022/01/10 07:44:23;;;;;;;;;;;5.60;84.50;;;;;;5024252;28;88190;-43
2022/01/10 07:46:48;;;;;;;;;;;5.60;84.40;;;;;;5025790;28;86459;-43
2022/01/10 07:49:14;;;;;;;;;;;5.60;84.50;;;;;;5025444;28;88056;-43
2022/01/10 07:51:39;;;;;;;;;;;5.60;84.60;;;;;;5024657;28;89819;-43
2022/01/10 07:54:05;;;;;;;;;;;5.60;84.50;;;;;;5024522;28;87902;-43
2022/01/10 07:56:31;;;;;;;;;;;5.60;84.60;;;;;;5025362;28;89899;-43
2022/01/10 07:58:56;;;;;;;;;;;5.60;84.50;;;;;;5024815;28;89720;-43
2022/01/10 08:01:22;;;;;;;;;;;5.60;84.50;;;;;;5028181;28;87063;-43
2022/01/10 08:03:50;;;;;;;;;;;5.60;84.50;;;;;;5024878;28;89393;-43
2022/01/10 08:06:16;;;;;;;;;;;5.60;84.50;;;;;;5024719;28;87188;-43
2022/01/10 08:08:42;;;;;;;;;;;5.60;84.50;;;;;;5025205;28;88939;-43
2022/01/10 08:11:07;;;;;;;;;;;5.60;84.50;;;;;;5025058;28;89067;-43
2022/01/10 08:13:33;;;;;;;;;;;5.60;84.40;;;;;;5025183;28;87091;-43
2022/01/10 08:15:58;;;;;;;;;;;5.60;84.50;;;;;;5025015;28;88367;-43
2022/01/10 08:18:24;;;;;;;;;;;5.60;84.60;;;;;;5023934;28;90472;-43
2022/01/10 08:20:49;;;;;;;;;;;5.60;84.60;;;;;;5024812;28;86930;-43
2022/01/10 08:23:15;;;;;;;;;;;5.60;84.60;;;;;;5027455;28;87979;-43
2022/01/10 08:25:41;;;;;;;;;;;5.60;84.80;;;;;;5024767;28;87127;-43
2022/01/10 08:28:07;;;;;;;;;;;5.60;84.70;;;;;;5025147;28;87486;-43
2022/01/10 08:30:32;;;;;;;;;;;5.60;84.90;;;;;;5024324;28;89426;-43
2022/01/10 08:32:58;;;;;;;;;;;5.60;84.80;;;;;;5024673;28;87122;-43
2022/01/10 08:35:23;;;;;;;;;;;5.60;84.60;;;;;;5025045;28;88520;-43
2022/01/10 08:37:49;;;;;;;;;;;5.60;84.50;;;;;;5024357;28;89598;-43
2022/01/10 08:40:14;;;;;;;;;;;5.60;84.50;;;;;;5024221;28;87131;-43
2022/01/10 08:42:40;;;;;;;;;;;5.70;84.50;;;;;;5026627;28;88981;-43
2022/01/10 08:45:08;;;;;;;;;;;5.60;84.40;;;;;;5024543;28;86995;-43
2022/01/10 08:47:34;;;;;;;;;;;5.70;84.50;;;;;;5024512;28;88798;-43
2022/01/10 08:49:59;;;;;;;;;;;5.60;84.50;;;;;;5024083;28;89543;-43
2022/01/10 08:52:25;;;;;;;;;;;5.60;84.70;;;;;;5024215;28;87028;-43
2022/01/10 08:54:50;;;;;;;;;;;5.60;84.70;;;;;;5023187;28;90921;-43
2022/01/10 08:57:17;;;;;;;;;;;5.60;84.70;;;;;;5024056;28;89473;-43
2022/01/10 08:59:43;;;;;;;;;;;5.60;84.70;;;;;;5024804;28;86679;-43
2022/01/10 09:02:09;;;;;;;;;;;5.60;84.70;;;;;;5024238;28;87668;-43
2022/01/10 09:04:34;;;;;;;;;;;5.60;84.50;;;;;;5026494;28;89401;-43
2022/01/10 09:07:02;;;;;;;;;;;5.70;84.50;;;;;;5023630;28;88785;-43
2022/01/10 09:09:28;;;;;;;;;;;5.60;84.50;;;;;;5023725;28;88460;-43
2022/01/10 09:11:53;;;;;;;;;;;5.60;84.50;;;;;;5024130;28;87128;-43
2022/01/10 09:14:19;;;;;;;;;;;5.60;84.50;;;;;;5023998;28;88735;-43
2022/01/10 09:16:45;;;;;;;;;;;5.60;84.60;;;;;;5023713;28;89329;-43
2022/01/10 09:19:11;;;;;;;;;;;5.60;84.60;;;;;;5023727;28;87163;-43
2022/01/10 09:21:36;;;;;;;;;;;5.60;84.50;;;;;;5024113;28;89043;-43
2022/01/10 09:24:02;;;;;;;;;;;5.60;84.50;;;;;;5024094;28;89387;-43
2022/01/10 09:26:28;;;;;;;;;;;5.60;84.60;;;;;;5026945;28;87139;-43
2022/01/10 09:28:54;;;;;;;;;;;5.60;84.60;;;;;;5023484;28;89518;-43
2022/01/10 09:31:21;;;;;;;;;;;5.60;84.50;;;;;;5023144;28;88013;-43
2022/01/10 09:33:52;;;;;;;;;;;5.60;84.60;;;;;;5023720;28;89694;-43
2022/01/10 09:36:18;;;;;;;;;;;5.60;84.50;;;;;;5022176;28;90714;-43
2022/01/10 09:38:44;;;;;;;;;;;5.60;84.50;;;;;;5023877;28;87053;-43
2022/01/10 09:41:09;;;;;;;;;;;5.60;84.50;;;;;;5023477;28;87249;-43
2022/01/10 09:43:35;;;;;;;;;;;5.60;84.50;;;;;;5023183;28;89429;-43
2022/01/10 09:46:01;;;;;;;;;;;5.60;84.50;;;;;;5023406;28;86896;-43
2022/01/10 09:48:27;;;;;;;;;;;5.70;84.40;;;;;;5026446;28;88830;-43
2022/01/10 09:50:52;;;;;;;;;;;5.70;84.50;;;;;;5023776;28;87108;-43
2022/01/10 09:53:18;;;;;;;;;;;5.70;84.30;;;;;;5023450;28;88993;-43
2022/01/10 09:55:44;;;;;;;;;;;5.70;84.20;;;;;;5022370;28;90186;-43
2022/01/10 09:58:10;;;;;;;;;;;5.70;84.20;;;;;;5023672;28;87141;-43
2022/01/10 10:00:35;;;;;;;;;;;5.70;84.20;;;;;;5023444;28;88611;-43
2022/01/10 10:03:01;;;;;;;;;;;5.70;84.40;;;;;;5022970;28;89300;-43
2022/01/10 10:05:27;;;;;;;;;;;5.70;84.40;;;;;;5022499;28;87126;-43
2022/01/10 10:07:52;;;;;;;;;;;5.70;84.50;;;;;;5022954;28;88779;-43
2022/01/10 10:10:18;;;;;;;;;;;5.60;84.50;;;;;;5025773;28;89688;-43
2022/01/10 10:12:45;;;;;;;;;;;5.60;84.60;;;;;;5023700;28;88930;-43
2022/01/10 10:15:12;;;;;;;;;;;5.60;84.70;;;;;;5022838;28;89498;-43
2022/01/10 10:17:38;;;;;;;;;;;5.70;84.70;;;;;;5023097;28;87067;-43
2022/01/10 10:20:08;;;;;;;;;;;5.60;84.50;;;;;;5022224;28;88962;-43
2022/01/10 10:22:33;;;;;;;;;;;5.70;84.50;;;;;;5022583;28;89288;-43
2022/01/10 10:24:59;;;;;;;;;;;5.70;84.60;;;;;;5022841;28;87071;-43
2022/01/10 10:27:24;;;;;;;;;;;5.70;84.90;;;;;;5023108;28;89500;-43
2022/01/10 10:29:50;;;;;;;;;;;5.60;84.80;;;;;;5022670;28;89567;-43
2022/01/10 10:32:16;;;;;;;;;;;5.70;85.00;;;;;;5025904;28;87020;-43
2022/01/10 10:34:42;;;;;;;;;;;5.60;84.80;;;;;;5022697;28;88775;-43
2022/01/10 10:37:08;;;;;;;;;;;5.70;85.00;;;;;;5023507;28;86213;-43
2022/01/10 10:39:35;;;;;;;;;;;5.70;84.70;;;;;;5023072;28;88357;-43
2022/01/10 10:42:02;;;;;;;;;;;5.70;84.70;;;;;;5021974;28;89454;-43
2022/01/10 10:44:28;;;;;;;;;;;5.70;84.80;;;;;;5022313;28;87682;-43
2022/01/10 10:46:54;;;;;;;;;;;5.70;84.80;;;;;;5022685;28;89084;-43
2022/01/10 10:49:21;;;;;;;;;;;5.70;84.80;;;;;;5022241;28;89139;-43
2022/01/10 10:51:50;;;;;;;;;;;5.70;84.90;;;;;;5025931;28;87121;-43
2022/01/10 10:54:17;;;;;;;;;;;5.60;85.30;;;;;;5022638;28;89482;-43
2022/01/10 10:56:43;;;;;;;;;;;5.70;84.80;;;;;;5022757;28;87294;-43
2022/01/10 10:59:11;;;;;;;;;;;5.70;84.90;;;;;;5022846;28;88980;-43
2022/01/10 11:01:37;;;;;;;;;;;5.70;85.00;;;;;;5022689;28;88613;-43
2022/01/10 11:04:04;;;;;;;;;;;5.60;85.00;;;;;;5022705;28;87013;-43
2022/01/10 11:06:32;;;;;;;;;;;5.60;84.90;;;;;;5022437;28;88688;-43
2022/01/10 11:08:59;;;;;;;;;;;5.70;85.00;;;;;;5021615;28;90787;-43
2022/01/10 11:11:25;;;;;;;;;;;5.60;85.00;;;;;;5022430;28;87076;-43
2022/01/10 11:13:51;;;;;;;;;;;5.70;85.10;;;;;;5024938;28;89365;-43
2022/01/10 11:16:17;;;;;;;;;;;5.70;85.00;;;;;;5022510;28;87092;-43
2022/01/10 11:18:43;;;;;;;;;;;5.60;85.00;;;;;;5023813;28;88879;-43
2022/01/10 11:21:10;;;;;;;;;;;5.70;85.00;;;;;;5025529;28;89209;-43
2022/01/10 11:23:44;;;;;;;;;;;5.70;84.90;;;;;;5025768;28;87073;-43
2022/01/10 11:26:10;;;;;;;;;;;5.70;85.10;;;;;;5025971;28;87711;-43
2022/01/10 11:28:50;;;;;;;;;;;5.70;85.30;;;;;;5025412;28;88283;-43
2022/01/10 11:31:20;;;;;;;;;;;5.60;85.00;;;;;;5025511;28;87100;-43
2022/01/10 11:33:46;;;;;;;;;;;5.70;85.30;;;;;;5025110;28;88835;-43
2022/01/10 11:36:13;;;;;;;;;;;5.60;85.20;;;;;;5028010;28;89739;-43
2022/01/10 11:38:38;;;;;;;;;;;5.60;85.30;;;;;;5025654;28;88579;-43
2022/01/10 11:41:07;;;;;;;;;;;5.60;85.20;;;;;;5024856;28;89596;-43
2022/01/10 11:43:33;;;;;;;;;;;5.70;85.20;;;;;;5025754;28;87064;-43
2022/01/10 11:46:06;;;;;;;;;;;5.60;85.00;;;;;;5025454;28;88739;-43
2022/01/10 11:49:02;;;;;;;;;;;5.70;85.10;;;;;;5025045;28;89620;-43
2022/01/10 11:51:28;;;;;;;;;;;5.60;85.60;;;;;;5028874;28;86445;-43
2022/01/10 11:53:57;;;;;;;;;;;5.70;84.80;;;;;;5025309;28;88081;-43
2022/01/10 11:56:30;;;;;;;;;;;5.70;84.80;;;;;;5024991;28;87579;-43
2022/01/10 11:59:06;;;;;;;;;;;5.60;84.90;;;;;;5027665;28;88053;-43
2022/01/10 12:01:35;;;;;;;;;;;5.60;85.00;;;;;;5024912;28;88577;-43
2022/01/10 12:04:01;;;;;;;;;;;5.60;84.90;;;;;;5025172;28;87089;-43
2022/01/10 12:06:27;;;;;;;;;;;5.70;84.80;;;;;;5025034;28;88887;-43
2022/01/10 12:08:56;;;;;;;;;;;5.70;84.70;;;;;;5024855;28;90321;-43
2022/01/10 12:11:23;;;;;;;;;;;5.70;84.70;;;;;;5025155;28;87083;-43
2022/01/10 12:13:51;;;;;;;;;;;5.70;84.60;;;;;;5025017;28;88836;-43
2022/01/10 12:16:17;;;;;;;;;;;5.60;84.60;;;;;;5025060;28;88633;-43
2022/01/10 12:18:42;;;;;;;;;;;5.70;84.70;;;;;;5024957;28;87231;-43
2022/01/10 12:21:08;;;;;;;;;;;5.70;84.80;;;;;;5027478;28;89014;-43
2022/01/10 12:23:33;;;;;;;;;;;5.70;84.50;;;;;;5024522;28;88153;-43
2022/01/10 12:25:59;;;;;;;;;;;5.70;84.50;;;;;;5024650;28;90357;-43
2022/01/10 12:28:27;;;;;;;;;;;5.70;84.50;;;;;;5024471;28;88583;-43
2022/01/10 12:30:52;;;;;;;;;;;5.60;84.50;;;;;;5024365;28;87117;-43
2022/01/10 12:33:18;;;;;;;;;;;5.70;84.70;;;;;;5024681;28;88491;-43
2022/01/10 12:35:44;;;;;;;;;;;5.70;84.60;;;;;;5024268;28;89343;-43
2022/01/10 12:38:09;;;;;;;;;;;5.70;84.60;;;;;;5024609;28;87091;-43
2022/01/10 12:40:35;;;;;;;;;;;5.60;84.60;;;;;;5027163;28;88034;-43
2022/01/10 12:43:00;;;;;;;;;;;5.60;84.50;;;;;;5024369;28;87146;-43
2022/01/10 12:45:45;;;;;;;;;;;5.60;84.60;;;;;;5024419;28;88198;-43
2022/01/10 12:48:11;;;;;;;;;;;5.60;84.60;;;;;;5023658;28;89668;-43
2022/01/10 12:50:37;;;;;;;;;;;5.60;84.60;;;;;;5024385;28;87197;-43
2022/01/10 12:53:03;;;;;;;;;;;5.60;84.60;;;;;;5024456;28;89354;-42
2022/01/10 12:55:29;;;;;;;;;;;5.60;84.60;;;;;;5024269;28;89637;-43
2022/01/10 12:57:54;;;;;;;;;;;5.60;84.40;;;;;;5024296;28;87146;-43
2022/01/10 13:00:20;;;;;;;;;;;5.60;84.50;;;;;;5024592;28;87395;-43
2022/01/10 13:02:47;;;;;;;;;;;5.60;84.50;;;;;;5026538;28;89693;-43
2022/01/10 13:05:14;;;;;;;;;;;5.60;84.40;;;;;;5024633;28;87936;-43
2022/01/10 13:07:41;;;;;;;;;;;5.60;84.30;;;;;;5023620;28;89134;-43
2022/01/10 13:10:10;;;;;;;;;;;5.60;84.40;;;;;;5024146;28;87017;-43
2022/01/10 13:12:36;;;;;;;;;;;5.60;84.50;;;;;;5023462;28;89016;-43
2022/01/10 13:15:09;;;;;;;;;;;5.60;84.30;;;;;;5023596;28;89611;-43
2022/01/10 13:17:35;;;;;;;;;;;5.60;84.30;;;;;;5023839;28;87165;-43
2022/01/10 13:20:02;;;;;;;;;;;5.60;84.20;;;;;;5024094;28;89187;-43
2022/01/10 13:22:35;;;;;;;;;;;5.70;84.00;;;;;;5023589;28;89634;-43
2022/01/10 13:25:04;;;;;;;;;;;5.70;83.90;;;;;;5026969;28;87130;-43
2022/01/10 13:27:33;;;;;;;;;;;5.70;83.80;;;;;;5023574;28;89578;-43
2022/01/10 13:30:10;;;;;;;;;;;5.70;83.70;;;;;;5024289;28;86384;-43
2022/01/10 13:32:36;;;;;;;;;;;5.60;83.80;;;;;;5024022;28;87198;-43
2022/01/10 13:35:06;;;;;;;;;;;5.60;83.90;;;;;;5023464;28;88961;-43
2022/01/10 13:37:45;;;;;;;;;;;5.60;84.00;;;;;;5023290;28;87816;-43
2022/01/10 13:40:12;;;;;;;;;;;5.60;83.90;;;;;;5022914;28;89639;-43
2022/01/10 13:42:39;;;;;;;;;;;5.60;84.00;;;;;;5022530;28;89354;-43
2022/01/10 13:45:05;;;;;;;;;;;5.60;84.10;;;;;;5023722;28;87182;-43
2022/01/10 13:47:47;;;;;;;;;;;5.60;84.00;;;;;;5026054;28;88921;-43
2022/01/10 13:50:19;;;;;;;;;;;5.60;84.00;;;;;;5023439;28;87150;-43
2022/01/10 13:52:58;;;;;;;;;;;5.60;83.80;;;;;;5023576;28;88968;-43
2022/01/10 13:55:24;;;;;;;;;;;5.60;83.70;;;;;;5023464;28;87934;-43
2022/01/10 13:57:49;;;;;;;;;;;5.60;83.70;;;;;;5023755;28;87177;-43
2022/01/10 14:00:18;;;;;;;;;;;5.60;83.80;;;;;;5023746;28;88842;-43
2022/01/10 14:02:44;;;;;;;;;;;5.60;83.90;;;;;;5022189;28;90378;-42
2022/01/10 14:05:23;;;;;;;;;;;5.60;83.70;;;;;;5023217;28;87153;-42
2022/01/10 14:07:49;;;;;;;;;;;5.50;83.70;;;;;;5023154;28;88842;-42
2022/01/10 14:10:15;;;;;;;;;;;5.50;83.90;;;;;;5025784;28;89475;-43
2022/01/10 14:12:40;;;;;;;;;;;5.50;83.90;;;;;;5023346;28;88625;-42
2022/01/10 14:15:06;;;;;;;;;;;5.50;83.90;;;;;;5022838;28;89325;-42
2022/01/10 14:17:32;;;;;;;;;;;5.50;83.90;;;;;;5023084;28;87130;-43
2022/01/10 14:19:57;;;;;;;;;;;5.60;83.90;;;;;;5023558;28;88910;-43
2022/01/10 14:22:23;;;;;;;;;;;5.60;83.80;;;;;;5022498;28;89231;-42
2022/01/10 14:24:49;;;;;;;;;;;5.60;83.90;;;;;;5023001;28;87172;-43
2022/01/10 14:27:14;;;;;;;;;;;5.60;83.80;;;;;;5022322;28;89183;-43
2022/01/10 14:29:40;;;;;;;;;;;5.50;83.80;;;;;;5022665;28;89462;-43
2022/01/10 14:32:06;;;;;;;;;;;5.50;83.80;;;;;;5025836;28;87089;-43
2022/01/10 14:34:31;;;;;;;;;;;5.60;83.70;;;;;;5022772;28;89200;-43
2022/01/10 14:36:57;;;;;;;;;;;5.50;83.70;;;;;;5022940;28;87035;-43
2022/01/10 14:39:22;;;;;;;;;;;5.60;83.60;;;;;;5022989;28;89426;-42
2022/01/10 14:41:48;;;;;;;;;;;5.50;83.60;;;;;;5022342;28;89506;-43